• Join FlightAware (Why Join?)
  • Login
  • US Flag 
06:27AM EDT


 

Airport Tracker/Info


-or-


 

Live Flight TrackerFlight Track Log ✈ AWI4065 ✈ 12-Jul-2014 ✈ KPVD - KDCA

Flight Track Log - Related Links

Times and Time Zones

All times are in EDT time to prevent confusion due to time zone crossing. See the AWI4065 flight status page for this flight to view local times or setup timezone preferences in your user account.

Time Position Orientation Groundspeed Altitude Reporting Facility
EDT Latitude Longitude Course Direction KTS MPH feet Rate Location/Type
02:56PM 41.6903 -71.4314 158° South 152 175 1,400  Level Boston Center
02:57PM 41.6333 -71.3933 153° Southeast 230 265 3,700 1,980 Climbing Boston Center
02:57PM 41.6197 -71.3889 166° South 219 252 4,200 1,560 Climbing Boston Center
02:58PM 41.5822 -71.7305 171° South  Level Estimated
02:58PM 41.5511 -71.3664 166° South 253 291 5,700  Level Boston Center
02:59PM 41.5347 -71.8309 238° Southwest  Level Estimated
02:59PM 41.4669 -71.3400 167° South 286 329 8,300  Level Boston Center
03:00PM 41.4872 -71.9312 238° Southwest  Level Estimated
03:00PM 41.3878 -71.3153 167° South 288 331 10,400  Level Boston Center
03:01PM 41.4395 -72.0314 238° Southwest  Level Estimated
03:02PM 41.3047 -71.2897 167° South 306 352 11,600  Level Boston Center
03:03PM 41.2100 -71.2606 167° South 321 369 13,300 1,440 Climbing Boston Center
03:04PM 41.1258 -71.2719 186° South 329 379 14,600 1,140 Climbing Boston Center
03:05PM 41.1072 -71.3856 258° West 327 376 15,700 1,140 Climbing Boston Center
03:06PM 41.0761 -71.5094 252° West 331 381 17,000 1,080 Climbing Boston Center
03:07PM 41.0133 -71.6014 228° Southwest 335 386 17,900 780 Climbing Boston Center
03:08PM 40.9578 -71.6836 228° Southwest 336 387 18,700 840 Climbing Boston Center
03:09PM 40.8897 -71.7853 228° Southwest 340 391 19,700 840 Climbing Boston Center
03:10PM 40.8256 -71.8783 228° Southwest 341 392 20,500 660 Climbing Boston Center
03:11PM 40.7619 -71.9708 228° Southwest 347 399 21,100 600 Climbing Boston Center
03:12PM 40.6922 -72.0731 228° Southwest 353 406 21,800 840 Climbing Boston Center
03:13PM 40.6244 -72.1725 228° Southwest 360 414 22,900 960 Climbing Boston Center
03:14PM 40.5553 -72.2719 228° Southwest 364 419 23,900 540 Climbing Boston Center
03:15PM 40.4728 -72.3917 228° Southwest 366 421 24,000  Climbing Boston Center
03:16PM 40.4033 -72.4917 228° Southwest 369 425 24,000  Level Boston Center
03:17PM 40.3347 -72.5900 228° Southwest 369 425 24,000  Level Boston Center
03:18PM 40.2656 -72.6892 228° Southwest 368 423 24,000  Level Boston Center
03:19PM 40.1994 -72.7828 227° Southwest 368 423 24,000  Level Boston Center
03:20PM 40.1314 -72.8814 228° Southwest 368 423 24,000  Level Boston Center
03:21PM 40.0614 -72.9800 227° Southwest 368 423 24,000  Level Boston Center
03:22PM 39.9789 -73.0967 227° Southwest 368 423 24,000  Level Boston Center
03:23PM 39.9092 -73.1956 227° Southwest 368 423 24,000  Level Boston Center
03:24PM 39.8392 -73.2931 227° Southwest 368 423 24,000  Level Boston Center
03:25PM 39.7806 -73.3775 228° Southwest 371 427 24,000  Level Washington Center
03:26PM 39.7094 -73.4742 226° Southwest 371 427 24,000  Level Washington Center
03:27PM 39.6400 -73.5706 227° Southwest 371 427 24,000  Level Washington Center
03:28PM 39.5667 -73.6694 226° Southwest 371 427 24,000  Level Washington Center
03:29PM 39.4994 -73.7681 229° Southwest 371 427 24,000  Level Washington Center
03:30PM 39.4281 -73.8639 226° Southwest 371 427 24,000  Level Washington Center
03:31PM 39.3586 -73.9622 228° Southwest 371 427 24,000  Level Washington Center
03:32PM 39.2869 -74.0578 226° Southwest 371 427 24,000 -360 Level Washington Center
03:33PM 39.2253 -74.1422 227° Southwest 371 427 23,400 -1,020 Descending Washington Center
03:34PM 39.1517 -74.2453 227° Southwest 371 427 22,000 -1,440 Descending Washington Center
03:35PM 39.0797 -74.3456 227° Southwest 377 434 20,600 -1,440 Descending Washington Center
03:36PM 39.0036 -74.4458 226° Southwest 377 434 19,200 -1,380 Descending Washington Center
03:37PM 38.9378 -74.5481 230° Southwest 382 440 17,800 -1,320 Descending Washington Center
03:38PM 38.9119 -74.6792 256° West 371 427 16,600 -960 Descending Washington Center
03:39PM 38.8878 -74.8075 256° West 364 419 16,000 -300 Descending Washington Center
03:40PM 38.8656 -74.9331 257° West 364 419 16,000  Level Washington Center
03:41PM 38.8411 -75.0506 255° West 358 412 16,000  Level Washington Center
03:42PM 38.8186 -75.1706 257° West 353 406 16,000  Level Washington Center
03:43PM 38.8067 -75.2881 263° West 353 406 16,000  Level Washington Center
03:44PM 38.7986 -75.4133 265° West 353 406 16,000 -420 Level Washington Center
03:45PM 38.7903 -75.5306 265° West 346 398 15,200 -960 Descending Washington Center
03:46PM 38.7839 -75.6475 266° West 341 392 14,200 -1,020 Descending Washington Center
03:47PM 38.7756 -75.7647 265° West 336 387 13,200 -1,020 Descending Washington Center
03:48PM 38.7692 -75.8764 266° West 330 380 12,200 -1,020 Descending Washington Center
03:49PM 38.7606 -75.9936 265° West 330 380 11,200 -660 Descending Washington Center
03:50PM 38.7600 -76.1081 270° West 330 380 11,000 -540 Descending Washington Center
03:51PM 38.7658 -76.2281 274° West 324 373 10,200 -480 Descending Washington Center
03:52PM 38.7756 -76.3292 277° West 310 357 10,100 -60 Descending Washington Center
03:53PM 38.7853 -76.4278 277° West 299 344 10,100 -60 Level Washington Center
03:54PM 38.7950 -76.5267 277° West 289 333 10,000 -60 Descending Washington Center
03:55PM 38.7983 -76.6250 273° West 284 327 10,000  Level Washington Center
03:57PM 38.8500 -76.8500 286° West 314 361 10,000 -60 Level Potomac TRACON
03:58PM 38.8833 -76.9167 303° West 261 300 9,900 -840 Descending Potomac TRACON
03:59PM 38.9500 -76.9833 322° Northwest 267 307 8,500 -1,680 Descending Potomac TRACON
04:00PM 39.0000 -77.0500 314° West 267 307 6,600 -2,160 Descending Potomac TRACON
04:01PM 39.0500 -77.1167 314° West 273 314 4,200 -2,040 Descending Potomac TRACON
04:02PM 39.0167 -77.1833 237° Southwest 251 289 2,600 -960 Descending Potomac TRACON
04:03PM 38.9667 -77.1500 153° Southeast 194 223 2,300 -420 Descending Potomac TRACON
04:04PM 38.9167 -77.1167 153° Southeast 164 189 1,800 -600 Descending Potomac TRACON
04:05PM 38.9000 -77.0667 113° Southeast 145 167 1,100 -660 Descending Potomac TRACON
04:06PM 38.8667 -77.0333 142° Southeast 140 161 500 -600 Descending Potomac TRACON
04:08PM 38.8500 -77.0333 150° Southeast  Level FlightAware Approximate